sensor_id;sensor_type;location;lat;lon;timestamp;P1;durP1;ratioP1;P2;durP2;ratioP2
51664;SDS011;37751;52.408;12.536;2023-03-23T00:01:12;2.20;;;1.27;;
51664;SDS011;37751;52.408;12.536;2023-03-23T00:03:41;4.30;;;1.60;;
51664;SDS011;37751;52.408;12.536;2023-03-23T00:06:08;3.03;;;1.60;;
51664;SDS011;37751;52.408;12.536;2023-03-23T00:08:36;2.75;;;1.25;;
51664;SDS011;37751;52.408;12.536;2023-03-23T00:11:12;5.85;;;2.00;;
51664;SDS011;37751;52.408;12.536;2023-03-23T00:13:45;2.72;;;1.70;;
51664;SDS011;37751;52.408;12.536;2023-03-23T00:16:17;4.40;;;1.75;;
51664;SDS011;37751;52.408;12.536;2023-03-23T00:18:47;5.00;;;1.50;;
51664;SDS011;37751;52.408;12.536;2023-03-23T00:21:22;1.95;;;1.33;;
51664;SDS011;37751;52.408;12.536;2023-03-23T00:23:51;2.50;;;1.50;;
51664;SDS011;37751;52.408;12.536;2023-03-23T00:26:18;3.90;;;1.40;;
51664;SDS011;37751;52.408;12.536;2023-03-23T00:28:45;4.85;;;1.35;;
51664;SDS011;37751;52.408;12.536;2023-03-23T00:31:14;2.92;;;1.33;;
51664;SDS011;37751;52.408;12.536;2023-03-23T00:33:41;2.90;;;1.40;;
51664;SDS011;37751;52.408;12.536;2023-03-23T00:36:08;1.90;;;1.40;;
51664;SDS011;37751;52.408;12.536;2023-03-23T00:38:37;3.08;;;1.42;;
51664;SDS011;37751;52.408;12.536;2023-03-23T00:41:06;5.47;;;1.70;;
51664;SDS011;37751;52.408;12.536;2023-03-23T00:43:33;4.03;;;1.35;;
51664;SDS011;37751;52.408;12.536;2023-03-23T00:46:02;4.15;;;1.67;;
51664;SDS011;37751;52.408;12.536;2023-03-23T00:48:36;1.77;;;1.25;;
51664;SDS011;37751;52.408;12.536;2023-03-23T00:51:06;5.10;;;1.50;;
51664;SDS011;37751;52.408;12.536;2023-03-23T00:53:36;3.83;;;1.42;;
51664;SDS011;37751;52.408;12.536;2023-03-23T00:56:04;4.82;;;1.30;;
51664;SDS011;37751;52.408;12.536;2023-03-23T00:58:32;1.80;;;1.38;;
51664;SDS011;37751;52.408;12.536;2023-03-23T01:00:59;2.15;;;1.60;;
51664;SDS011;37751;52.408;12.536;2023-03-23T01:03:26;1.38;;;1.15;;
51664;SDS011;37751;52.408;12.536;2023-03-23T01:05:54;4.53;;;1.55;;
51664;SDS011;37751;52.408;12.536;2023-03-23T01:08:22;3.03;;;1.45;;
51664;SDS011;37751;52.408;12.536;2023-03-23T01:10:50;9.02;;;1.80;;
51664;SDS011;37751;52.408;12.536;2023-03-23T01:13:16;3.00;;;1.40;;
51664;SDS011;37751;52.408;12.536;2023-03-23T01:15:43;4.03;;;1.40;;
51664;SDS011;37751;52.408;12.536;2023-03-23T01:18:11;3.35;;;1.30;;
51664;SDS011;37751;52.408;12.536;2023-03-23T01:20:38;2.95;;;1.42;;
51664;SDS011;37751;52.408;12.536;2023-03-23T01:23:05;2.03;;;1.15;;
51664;SDS011;37751;52.408;12.536;2023-03-23T01:25:35;2.75;;;1.50;;
51664;SDS011;37751;52.408;12.536;2023-03-23T01:28:02;1.58;;;1.40;;
51664;SDS011;37751;52.408;12.536;2023-03-23T01:30:29;7.30;;;1.40;;
51664;SDS011;37751;52.408;12.536;2023-03-23T01:32:57;6.90;;;1.35;;
51664;SDS011;37751;52.408;12.536;2023-03-23T01:35:23;3.83;;;1.67;;
51664;SDS011;37751;52.408;12.536;2023-03-23T01:37:51;3.22;;;1.50;;
51664;SDS011;37751;52.408;12.536;2023-03-23T01:40:18;5.88;;;1.75;;
51664;SDS011;37751;52.408;12.536;2023-03-23T01:42:45;1.60;;;1.30;;
51664;SDS011;37751;52.408;12.536;2023-03-23T01:47:47;6.32;;;1.40;;
51664;SDS011;37751;52.408;12.536;2023-03-23T01:50:23;2.97;;;1.33;;
51664;SDS011;37751;52.408;12.536;2023-03-23T01:52:52;3.13;;;1.63;;
51664;SDS011;37751;52.408;12.536;2023-03-23T01:55:22;2.70;;;1.38;;
51664;SDS011;37751;52.408;12.536;2023-03-23T01:57:53;2.15;;;1.50;;
51664;SDS011;37751;52.408;12.536;2023-03-23T02:00:23;7.78;;;1.58;;
51664;SDS011;37751;52.408;12.536;2023-03-23T02:02:54;2.65;;;1.30;;
51664;SDS011;37751;52.408;12.536;2023-03-23T02:05:39;1.63;;;1.25;;
51664;SDS011;37751;52.408;12.536;2023-03-23T02:08:27;3.00;;;1.20;;
51664;SDS011;37751;52.408;12.536;2023-03-23T02:10:56;2.50;;;1.45;;
51664;SDS011;37751;52.408;12.536;2023-03-23T02:13:23;3.20;;;1.40;;
51664;SDS011;37751;52.408;12.536;2023-03-23T02:16:01;3.33;;;1.60;;
51664;SDS011;37751;52.408;12.536;2023-03-23T02:18:52;4.88;;;1.08;;
51664;SDS011;37751;52.408;12.536;2023-03-23T02:36:17;2.65;;;1.25;;
51664;SDS011;37751;52.408;12.536;2023-03-23T02:38:55;5.00;;;1.25;;
51664;SDS011;37751;52.408;12.536;2023-03-23T02:41:45;3.53;;;1.30;;
51664;SDS011;37751;52.408;12.536;2023-03-23T02:44:23;1.17;;;1.05;;
51664;SDS011;37751;52.408;12.536;2023-03-23T02:46:57;3.00;;;1.40;;
51664;SDS011;37751;52.408;12.536;2023-03-23T02:49:27;5.82;;;1.38;;
51664;SDS011;37751;52.408;12.536;2023-03-23T02:51:58;2.72;;;1.30;;
51664;SDS011;37751;52.408;12.536;2023-03-23T02:54:28;2.47;;;1.33;;
51664;SDS011;37751;52.408;12.536;2023-03-23T02:56:55;3.78;;;1.52;;
51664;SDS011;37751;52.408;12.536;2023-03-23T02:59:27;3.88;;;1.70;;
51664;SDS011;37751;52.408;12.536;2023-03-23T03:01:55;2.15;;;1.48;;
51664;SDS011;37751;52.408;12.536;2023-03-23T03:04:29;2.97;;;1.70;;
51664;SDS011;37751;52.408;12.536;2023-03-23T03:16:33;6.18;;;1.25;;
51664;SDS011;37751;52.408;12.536;2023-03-23T03:19:13;2.30;;;1.48;;
51664;SDS011;37751;52.408;12.536;2023-03-23T03:21:47;3.00;;;1.60;;
51664;SDS011;37751;52.408;12.536;2023-03-23T03:24:22;4.95;;;1.83;;
51664;SDS011;37751;52.408;12.536;2023-03-23T03:26:52;4.72;;;1.50;;
51664;SDS011;37751;52.408;12.536;2023-03-23T03:29:33;6.82;;;2.33;;
51664;SDS011;37751;52.408;12.536;2023-03-23T03:32:04;4.95;;;2.60;;
51664;SDS011;37751;52.408;12.536;2023-03-23T03:34:34;4.72;;;1.60;;
51664;SDS011;37751;52.408;12.536;2023-03-23T03:37:03;4.30;;;1.75;;
51664;SDS011;37751;52.408;12.536;2023-03-23T03:39:36;5.15;;;2.13;;
51664;SDS011;37751;52.408;12.536;2023-03-23T03:42:04;3.35;;;1.98;;
51664;SDS011;37751;52.408;12.536;2023-03-23T03:44:32;5.15;;;2.25;;
51664;SDS011;37751;52.408;12.536;2023-03-23T03:47:00;5.15;;;1.92;;
51664;SDS011;37751;52.408;12.536;2023-03-23T03:49:26;6.80;;;2.30;;
51664;SDS011;37751;52.408;12.536;2023-03-23T03:51:54;3.45;;;2.28;;
51664;SDS011;37751;52.408;12.536;2023-03-23T03:54:26;6.82;;;2.35;;
51664;SDS011;37751;52.408;12.536;2023-03-23T03:56:52;5.07;;;2.20;;
51664;SDS011;37751;52.408;12.536;2023-03-23T03:59:38;4.40;;;2.05;;
51664;SDS011;37751;52.408;12.536;2023-03-23T04:02:14;4.88;;;1.83;;
51664;SDS011;37751;52.408;12.536;2023-03-23T04:04:43;3.85;;;1.85;;
51664;SDS011;37751;52.408;12.536;2023-03-23T04:07:10;5.20;;;2.08;;
51664;SDS011;37751;52.408;12.536;2023-03-23T04:09:40;5.72;;;2.00;;
51664;SDS011;37751;52.408;12.536;2023-03-23T04:12:08;5.55;;;1.90;;
51664;SDS011;37751;52.408;12.536;2023-03-23T04:14:53;5.55;;;2.03;;
51664;SDS011;37751;52.408;12.536;2023-03-23T04:17:20;6.70;;;2.17;;
51664;SDS011;37751;52.408;12.536;2023-03-23T04:19:47;4.35;;;2.10;;
51664;SDS011;37751;52.408;12.536;2023-03-23T04:22:14;6.20;;;2.33;;
51664;SDS011;37751;52.408;12.536;2023-03-23T04:24:43;3.63;;;2.30;;
51664;SDS011;37751;52.408;12.536;2023-03-23T04:27:16;4.40;;;2.20;;
51664;SDS011;37751;52.408;12.536;2023-03-23T04:29:43;5.13;;;2.70;;
51664;SDS011;37751;52.408;12.536;2023-03-23T04:32:41;5.03;;;2.20;;
51664;SDS011;37751;52.408;12.536;2023-03-23T04:35:09;5.45;;;2.45;;
51664;SDS011;37751;52.408;12.536;2023-03-23T04:37:43;5.13;;;2.50;;
51664;SDS011;37751;52.408;12.536;2023-03-23T04:40:13;4.53;;;3.10;;
51664;SDS011;37751;52.408;12.536;2023-03-23T04:42:46;5.70;;;2.70;;
51664;SDS011;37751;52.408;12.536;2023-03-23T04:45:26;5.80;;;2.35;;
51664;SDS011;37751;52.408;12.536;2023-03-23T04:47:55;5.07;;;2.45;;
51664;SDS011;37751;52.408;12.536;2023-03-23T04:50:34;5.60;;;2.90;;
51664;SDS011;37751;52.408;12.536;2023-03-23T04:53:12;3.92;;;2.15;;
51664;SDS011;37751;52.408;12.536;2023-03-23T04:55:41;2.70;;;2.08;;
51664;SDS011;37751;52.408;12.536;2023-03-23T04:58:11;3.03;;;2.00;;
51664;SDS011;37751;52.408;12.536;2023-03-23T05:01:06;3.08;;;1.80;;
51664;SDS011;37751;52.408;12.536;2023-03-23T05:03:40;3.25;;;2.05;;
51664;SDS011;37751;52.408;12.536;2023-03-23T05:06:07;4.55;;;2.13;;
51664;SDS011;37751;52.408;12.536;2023-03-23T05:08:36;5.32;;;2.00;;
51664;SDS011;37751;52.408;12.536;2023-03-23T05:11:06;2.97;;;2.15;;
51664;SDS011;37751;52.408;12.536;2023-03-23T05:13:37;4.25;;;1.98;;
51664;SDS011;37751;52.408;12.536;2023-03-23T05:16:06;3.05;;;1.75;;
51664;SDS011;37751;52.408;12.536;2023-03-23T05:18:35;5.38;;;1.92;;
51664;SDS011;37751;52.408;12.536;2023-03-23T05:21:05;3.92;;;1.50;;
51664;SDS011;37751;52.408;12.536;2023-03-23T05:23:35;3.10;;;1.65;;
51664;SDS011;37751;52.408;12.536;2023-03-23T05:26:12;6.03;;;1.77;;
51664;SDS011;37751;52.408;12.536;2023-03-23T05:28:40;4.15;;;1.70;;
51664;SDS011;37751;52.408;12.536;2023-03-23T05:31:30;8.05;;;1.77;;
51664;SDS011;37751;52.408;12.536;2023-03-23T05:33:58;7.20;;;2.20;;
51664;SDS011;37751;52.408;12.536;2023-03-23T05:36:33;4.18;;;1.85;;
51664;SDS011;37751;52.408;12.536;2023-03-23T05:39:10;4.88;;;2.05;;
51664;SDS011;37751;52.408;12.536;2023-03-23T05:41:57;5.43;;;2.10;;
51664;SDS011;37751;52.408;12.536;2023-03-23T05:44:27;3.28;;;1.80;;
51664;SDS011;37751;52.408;12.536;2023-03-23T05:46:58;5.10;;;2.20;;
51664;SDS011;37751;52.408;12.536;2023-03-23T05:49:25;6.60;;;2.25;;
51664;SDS011;37751;52.408;12.536;2023-03-23T05:51:53;5.38;;;1.98;;
51664;SDS011;37751;52.408;12.536;2023-03-23T05:54:20;4.25;;;1.90;;
51664;SDS011;37751;52.408;12.536;2023-03-23T05:56:48;5.88;;;1.95;;
51664;SDS011;37751;52.408;12.536;2023-03-23T05:59:35;5.03;;;2.10;;
51664;SDS011;37751;52.408;12.536;2023-03-23T06:02:04;3.45;;;1.70;;
51664;SDS011;37751;52.408;12.536;2023-03-23T06:04:31;7.40;;;2.15;;
51664;SDS011;37751;52.408;12.536;2023-03-23T06:07:13;2.70;;;1.80;;
51664;SDS011;37751;52.408;12.536;2023-03-23T06:09:47;6.57;;;2.30;;
51664;SDS011;37751;52.408;12.536;2023-03-23T06:12:23;7.53;;;1.70;;
51664;SDS011;37751;52.408;12.536;2023-03-23T06:15:13;3.53;;;1.75;;
51664;SDS011;37751;52.408;12.536;2023-03-23T06:18:03;3.15;;;2.30;;
51664;SDS011;37751;52.408;12.536;2023-03-23T06:20:43;6.10;;;2.03;;
51664;SDS011;37751;52.408;12.536;2023-03-23T06:23:33;3.97;;;2.00;;
51664;SDS011;37751;52.408;12.536;2023-03-23T06:26:04;13.85;;;2.42;;
51664;SDS011;37751;52.408;12.536;2023-03-23T06:28:34;4.80;;;1.70;;
51664;SDS011;37751;52.408;12.536;2023-03-23T06:31:02;4.05;;;1.90;;
51664;SDS011;37751;52.408;12.536;2023-03-23T06:33:33;4.25;;;1.90;;
51664;SDS011;37751;52.408;12.536;2023-03-23T06:36:31;4.97;;;1.73;;
51664;SDS011;37751;52.408;12.536;2023-03-23T06:39:07;2.85;;;2.03;;
51664;SDS011;37751;52.408;12.536;2023-03-23T06:41:47;4.68;;;1.85;;
51664;SDS011;37751;52.408;12.536;2023-03-23T06:44:14;4.57;;;2.00;;
51664;SDS011;37751;52.408;12.536;2023-03-23T06:46:41;3.50;;;2.03;;
51664;SDS011;37751;52.408;12.536;2023-03-23T06:49:35;5.38;;;2.00;;
51664;SDS011;37751;52.408;12.536;2023-03-23T06:52:31;5.28;;;2.08;;
51664;SDS011;37751;52.408;12.536;2023-03-23T06:54:58;3.28;;;1.80;;
51664;SDS011;37751;52.408;12.536;2023-03-23T06:57:25;2.65;;;1.58;;
51664;SDS011;37751;52.408;12.536;2023-03-23T06:59:52;4.72;;;1.90;;
51664;SDS011;37751;52.408;12.536;2023-03-23T07:02:21;6.10;;;2.17;;
51664;SDS011;37751;52.408;12.536;2023-03-23T07:04:51;5.18;;;1.90;;
51664;SDS011;37751;52.408;12.536;2023-03-23T07:07:21;3.90;;;2.88;;
51664;SDS011;37751;52.408;12.536;2023-03-23T07:09:53;3.80;;;1.83;;
51664;SDS011;37751;52.408;12.536;2023-03-23T07:12:23;5.15;;;1.90;;
51664;SDS011;37751;52.408;12.536;2023-03-23T07:14:51;3.13;;;1.80;;
51664;SDS011;37751;52.408;12.536;2023-03-23T07:17:18;3.50;;;1.95;;
51664;SDS011;37751;52.408;12.536;2023-03-23T07:20:02;8.60;;;1.95;;
51664;SDS011;37751;52.408;12.536;2023-03-23T07:22:31;3.10;;;2.03;;
51664;SDS011;37751;52.408;12.536;2023-03-23T07:25:07;3.28;;;1.90;;
51664;SDS011;37751;52.408;12.536;2023-03-23T07:27:45;3.78;;;1.92;;
51664;SDS011;37751;52.408;12.536;2023-03-23T07:30:13;3.47;;;1.90;;
51664;SDS011;37751;52.408;12.536;2023-03-23T07:32:41;3.97;;;1.80;;
51664;SDS011;37751;52.408;12.536;2023-03-23T07:35:08;3.60;;;1.80;;
51664;SDS011;37751;52.408;12.536;2023-03-23T07:37:55;4.22;;;1.90;;
51664;SDS011;37751;52.408;12.536;2023-03-23T07:40:22;3.88;;;1.90;;
51664;SDS011;37751;52.408;12.536;2023-03-23T07:42:53;5.35;;;1.88;;
51664;SDS011;37751;52.408;12.536;2023-03-23T07:45:33;3.92;;;1.92;;
51664;SDS011;37751;52.408;12.536;2023-03-23T07:48:00;5.35;;;3.20;;
51664;SDS011;37751;52.408;12.536;2023-03-23T07:50:28;1.58;;;1.38;;
51664;SDS011;37751;52.408;12.536;2023-03-23T07:52:56;2.97;;;1.60;;
51664;SDS011;37751;52.408;12.536;2023-03-23T07:55:26;5.13;;;2.00;;
51664;SDS011;37751;52.408;12.536;2023-03-23T07:58:06;1.90;;;1.48;;
51664;SDS011;37751;52.408;12.536;2023-03-23T08:00:35;3.53;;;1.55;;
51664;SDS011;37751;52.408;12.536;2023-03-23T08:03:05;2.83;;;1.58;;
51664;SDS011;37751;52.408;12.536;2023-03-23T08:05:51;2.83;;;1.50;;
51664;SDS011;37751;52.408;12.536;2023-03-23T08:08:44;3.80;;;1.60;;
51664;SDS011;37751;52.408;12.536;2023-03-23T08:11:30;5.00;;;1.50;;
51664;SDS011;37751;52.408;12.536;2023-03-23T08:14:32;2.30;;;1.60;;
51664;SDS011;37751;52.408;12.536;2023-03-23T08:17:11;3.55;;;1.67;;
51664;SDS011;37751;52.408;12.536;2023-03-23T08:19:57;2.70;;;1.35;;
51664;SDS011;37751;52.408;12.536;2023-03-23T08:22:52;3.30;;;1.73;;
51664;SDS011;37751;52.408;12.536;2023-03-23T08:25:33;3.35;;;1.45;;
51664;SDS011;37751;52.408;12.536;2023-03-23T08:28:22;5.40;;;1.77;;
51664;SDS011;37751;52.408;12.536;2023-03-23T08:31:13;7.78;;;1.42;;
51664;SDS011;37751;52.408;12.536;2023-03-23T08:33:52;2.40;;;1.67;;
51664;SDS011;37751;52.408;12.536;2023-03-23T08:36:25;3.80;;;1.70;;
51664;SDS011;37751;52.408;12.536;2023-03-23T08:39:13;3.45;;;1.40;;
51664;SDS011;37751;52.408;12.536;2023-03-23T08:42:02;2.78;;;1.33;;
51664;SDS011;37751;52.408;12.536;2023-03-23T08:44:48;2.08;;;1.42;;
51664;SDS011;37751;52.408;12.536;2023-03-23T08:47:35;2.53;;;1.52;;
51664;SDS011;37751;52.408;12.536;2023-03-23T08:50:24;2.65;;;1.50;;
51664;SDS011;37751;52.408;12.536;2023-03-23T08:53:12;2.88;;;1.40;;
51664;SDS011;37751;52.408;12.536;2023-03-23T08:56:06;3.95;;;1.52;;
51664;SDS011;37751;52.408;12.536;2023-03-23T08:59:13;3.67;;;1.40;;
51664;SDS011;37751;52.408;12.536;2023-03-23T09:01:51;3.60;;;1.40;;
51664;SDS011;37751;52.408;12.536;2023-03-23T09:04:28;2.75;;;1.25;;
51664;SDS011;37751;52.408;12.536;2023-03-23T09:07:28;1.70;;;1.20;;
51664;SDS011;37751;52.408;12.536;2023-03-23T09:09:55;2.63;;;1.30;;
51664;SDS011;37751;52.408;12.536;2023-03-23T09:12:22;3.40;;;1.45;;
51664;SDS011;37751;52.408;12.536;2023-03-23T09:14:49;2.83;;;1.17;;
51664;SDS011;37751;52.408;12.536;2023-03-23T09:17:16;4.38;;;1.58;;
51664;SDS011;37751;52.408;12.536;2023-03-23T09:19:43;2.00;;;1.10;;
51664;SDS011;37751;52.408;12.536;2023-03-23T09:22:10;1.73;;;1.25;;
51664;SDS011;37751;52.408;12.536;2023-03-23T09:24:36;2.83;;;1.05;;
51664;SDS011;37751;52.408;12.536;2023-03-23T09:27:03;3.80;;;1.10;;
51664;SDS011;37751;52.408;12.536;2023-03-23T09:29:30;1.90;;;1.10;;
51664;SDS011;37751;52.408;12.536;2023-03-23T09:31:57;2.33;;;1.15;;
51664;SDS011;37751;52.408;12.536;2023-03-23T09:34:24;2.97;;;1.50;;
51664;SDS011;37751;52.408;12.536;2023-03-23T09:36:51;2.50;;;1.33;;
51664;SDS011;37751;52.408;12.536;2023-03-23T09:39:18;2.58;;;1.48;;
51664;SDS011;37751;52.408;12.536;2023-03-23T09:50:09;1.88;;;1.10;;
51664;SDS011;37751;52.408;12.536;2023-03-23T09:52:51;2.35;;;1.25;;
51664;SDS011;37751;52.408;12.536;2023-03-23T09:55:24;2.55;;;1.30;;
51664;SDS011;37751;52.408;12.536;2023-03-23T09:57:54;2.13;;;1.20;;
51664;SDS011;37751;52.408;12.536;2023-03-23T10:00:42;2.67;;;1.85;;
51664;SDS011;37751;52.408;12.536;2023-03-23T10:03:43;3.13;;;1.20;;
51664;SDS011;37751;52.408;12.536;2023-03-23T10:06:14;2.42;;;1.10;;
51664;SDS011;37751;52.408;12.536;2023-03-23T10:08:53;4.35;;;1.45;;
51664;SDS011;37751;52.408;12.536;2023-03-23T10:17:17;2.97;;;1.08;;
51664;SDS011;37751;52.408;12.536;2023-03-23T10:25:58;2.20;;;0.90;;
51664;SDS011;37751;52.408;12.536;2023-03-23T10:28:50;2.53;;;1.20;;
51664;SDS011;37751;52.408;12.536;2023-03-23T10:31:24;2.63;;;1.17;;
51664;SDS011;37751;52.408;12.536;2023-03-23T10:34:03;2.05;;;1.30;;
51664;SDS011;37751;52.408;12.536;2023-03-23T10:36:38;3.15;;;1.05;;
51664;SDS011;37751;52.408;12.536;2023-03-23T10:39:21;1.80;;;1.17;;
51664;SDS011;37751;52.408;12.536;2023-03-23T10:41:52;2.03;;;0.93;;
51664;SDS011;37751;52.408;12.536;2023-03-23T10:44:20;4.03;;;1.10;;
51664;SDS011;37751;52.408;12.536;2023-03-23T10:49:32;2.60;;;1.15;;
51664;SDS011;37751;52.408;12.536;2023-03-23T10:52:32;5.10;;;1.33;;
51664;SDS011;37751;52.408;12.536;2023-03-23T10:55:10;2.95;;;1.23;;
51664;SDS011;37751;52.408;12.536;2023-03-23T10:57:57;2.67;;;1.40;;
51664;SDS011;37751;52.408;12.536;2023-03-23T11:00:27;1.63;;;1.05;;
51664;SDS011;37751;52.408;12.536;2023-03-23T11:03:02;5.93;;;1.10;;
51664;SDS011;37751;52.408;12.536;2023-03-23T11:06:02;2.42;;;0.95;;
51664;SDS011;37751;52.408;12.536;2023-03-23T11:08:35;3.75;;;1.17;;
51664;SDS011;37751;52.408;12.536;2023-03-23T11:11:26;0.95;;;0.90;;
51664;SDS011;37751;52.408;12.536;2023-03-23T11:14:11;1.67;;;1.23;;
51664;SDS011;37751;52.408;12.536;2023-03-23T11:16:45;2.85;;;1.13;;
51664;SDS011;37751;52.408;12.536;2023-03-23T11:19:23;2.25;;;1.20;;
51664;SDS011;37751;52.408;12.536;2023-03-23T11:21:53;0.93;;;0.85;;
51664;SDS011;37751;52.408;12.536;2023-03-23T11:24:36;1.75;;;1.23;;
51664;SDS011;37751;52.408;12.536;2023-03-23T11:27:09;1.85;;;1.27;;
51664;SDS011;37751;52.408;12.536;2023-03-23T11:29:47;3.60;;;1.30;;
51664;SDS011;37751;52.408;12.536;2023-03-23T11:32:28;7.65;;;2.25;;
51664;SDS011;37751;52.408;12.536;2023-03-23T11:35:00;2.83;;;1.38;;
51664;SDS011;37751;52.408;12.536;2023-03-23T11:37:33;3.05;;;1.33;;
51664;SDS011;37751;52.408;12.536;2023-03-23T11:42:37;2.92;;;1.23;;
51664;SDS011;37751;52.408;12.536;2023-03-23T11:45:48;6.70;;;1.73;;
51664;SDS011;37751;52.408;12.536;2023-03-23T11:51:36;1.95;;;1.40;;
51664;SDS011;37751;52.408;12.536;2023-03-23T11:54:22;1.58;;;1.08;;
51664;SDS011;37751;52.408;12.536;2023-03-23T11:57:06;3.10;;;1.35;;
51664;SDS011;37751;52.408;12.536;2023-03-23T11:59:38;4.03;;;1.20;;
51664;SDS011;37751;52.408;12.536;2023-03-23T12:05:30;2.08;;;1.10;;
51664;SDS011;37751;52.408;12.536;2023-03-23T12:08:10;2.83;;;1.23;;
51664;SDS011;37751;52.408;12.536;2023-03-23T12:11:18;1.90;;;0.98;;
51664;SDS011;37751;52.408;12.536;2023-03-23T12:25:02;3.63;;;1.10;;
51664;SDS011;37751;52.408;12.536;2023-03-23T12:48:34;2.80;;;1.17;;
51664;SDS011;37751;52.408;12.536;2023-03-23T12:51:10;2.92;;;1.10;;
51664;SDS011;37751;52.408;12.536;2023-03-23T12:53:51;3.70;;;1.15;;
51664;SDS011;37751;52.408;12.536;2023-03-23T12:56:46;2.42;;;1.20;;
51664;SDS011;37751;52.408;12.536;2023-03-23T12:59:52;1.88;;;1.23;;
51664;SDS011;37751;52.408;12.536;2023-03-23T13:02:41;10.45;;;1.83;;
51664;SDS011;37751;52.408;12.536;2023-03-23T13:07:55;8.63;;;1.38;;
51664;SDS011;37751;52.408;12.536;2023-03-23T13:13:10;3.40;;;1.25;;
51664;SDS011;37751;52.408;12.536;2023-03-23T13:22:11;5.53;;;1.20;;
51664;SDS011;37751;52.408;12.536;2023-03-23T13:24:50;3.85;;;1.55;;
51664;SDS011;37751;52.408;12.536;2023-03-23T13:27:27;6.57;;;1.20;;
51664;SDS011;37751;52.408;12.536;2023-03-23T13:29:56;10.13;;;1.63;;
51664;SDS011;37751;52.408;12.536;2023-03-23T13:32:35;4.80;;;1.60;;
51664;SDS011;37751;52.408;12.536;2023-03-23T13:35:11;2.05;;;1.20;;
51664;SDS011;37751;52.408;12.536;2023-03-23T13:37:45;4.43;;;1.45;;
51664;SDS011;37751;52.408;12.536;2023-03-23T13:40:28;5.18;;;1.35;;
51664;SDS011;37751;52.408;12.536;2023-03-23T13:42:58;4.85;;;1.50;;
51664;SDS011;37751;52.408;12.536;2023-03-23T13:48:18;6.53;;;1.48;;
51664;SDS011;37751;52.408;12.536;2023-03-23T13:50:55;3.45;;;1.30;;
51664;SDS011;37751;52.408;12.536;2023-03-23T13:56:06;5.28;;;2.60;;
51664;SDS011;37751;52.408;12.536;2023-03-23T13:59:06;8.70;;;1.90;;
51664;SDS011;37751;52.408;12.536;2023-03-23T14:01:40;3.67;;;1.27;;
51664;SDS011;37751;52.408;12.536;2023-03-23T14:04:15;4.13;;;1.40;;
51664;SDS011;37751;52.408;12.536;2023-03-23T14:06:45;3.30;;;1.48;;
51664;SDS011;37751;52.408;12.536;2023-03-23T14:09:33;2.42;;;1.30;;
51664;SDS011;37751;52.408;12.536;2023-03-23T14:12:13;6.28;;;1.20;;
51664;SDS011;37751;52.408;12.536;2023-03-23T14:15:03;3.15;;;1.33;;
51664;SDS011;37751;52.408;12.536;2023-03-23T14:17:36;3.20;;;1.40;;
51664;SDS011;37751;52.408;12.536;2023-03-23T14:20:14;6.53;;;1.05;;
51664;SDS011;37751;52.408;12.536;2023-03-23T14:23:00;3.35;;;1.30;;
51664;SDS011;37751;52.408;12.536;2023-03-23T14:25:30;3.65;;;1.23;;
51664;SDS011;37751;52.408;12.536;2023-03-23T14:27:59;4.85;;;1.80;;
51664;SDS011;37751;52.408;12.536;2023-03-23T14:30:26;5.78;;;1.20;;
51664;SDS011;37751;52.408;12.536;2023-03-23T14:33:03;3.85;;;1.30;;
51664;SDS011;37751;52.408;12.536;2023-03-23T14:35:34;2.55;;;1.20;;
51664;SDS011;37751;52.408;12.536;2023-03-23T14:38:05;5.65;;;1.30;;
51664;SDS011;37751;52.408;12.536;2023-03-23T14:40:46;3.60;;;1.30;;
51664;SDS011;37751;52.408;12.536;2023-03-23T14:43:15;2.80;;;1.23;;
51664;SDS011;37751;52.408;12.536;2023-03-23T14:45:47;4.18;;;1.42;;
51664;SDS011;37751;52.408;12.536;2023-03-23T14:48:20;2.50;;;1.15;;
51664;SDS011;37751;52.408;12.536;2023-03-23T14:50:51;5.07;;;1.20;;
51664;SDS011;37751;52.408;12.536;2023-03-23T14:53:24;6.85;;;1.58;;
51664;SDS011;37751;52.408;12.536;2023-03-23T14:56:30;1.83;;;1.02;;
51664;SDS011;37751;52.408;12.536;2023-03-23T14:59:02;5.40;;;1.65;;
51664;SDS011;37751;52.408;12.536;2023-03-23T15:01:32;6.65;;;1.80;;
51664;SDS011;37751;52.408;12.536;2023-03-23T15:06:50;4.40;;;1.13;;
51664;SDS011;37751;52.408;12.536;2023-03-23T15:09:23;3.35;;;1.50;;
51664;SDS011;37751;52.408;12.536;2023-03-23T15:11:51;7.40;;;1.90;;
51664;SDS011;37751;52.408;12.536;2023-03-23T15:14:32;7.95;;;1.85;;
51664;SDS011;37751;52.408;12.536;2023-03-23T15:17:10;4.05;;;1.50;;
51664;SDS011;37751;52.408;12.536;2023-03-23T15:19:47;4.53;;;1.52;;
51664;SDS011;37751;52.408;12.536;2023-03-23T15:24:53;7.28;;;1.77;;
51664;SDS011;37751;52.408;12.536;2023-03-23T15:27:44;4.97;;;1.40;;
51664;SDS011;37751;52.408;12.536;2023-03-23T15:32:52;5.97;;;1.38;;
51664;SDS011;37751;52.408;12.536;2023-03-23T15:35:39;5.13;;;1.25;;
51664;SDS011;37751;52.408;12.536;2023-03-23T15:38:15;7.95;;;1.98;;
51664;SDS011;37751;52.408;12.536;2023-03-23T15:40:55;5.65;;;1.67;;
51664;SDS011;37751;52.408;12.536;2023-03-23T15:43:32;3.80;;;1.40;;
51664;SDS011;37751;52.408;12.536;2023-03-23T15:46:25;5.78;;;1.45;;
51664;SDS011;37751;52.408;12.536;2023-03-23T15:51:24;6.03;;;1.80;;
51664;SDS011;37751;52.408;12.536;2023-03-23T15:53:55;5.35;;;1.17;;
51664;SDS011;37751;52.408;12.536;2023-03-23T15:56:23;4.32;;;1.67;;
51664;SDS011;37751;52.408;12.536;2023-03-23T15:58:51;6.20;;;1.48;;
51664;SDS011;37751;52.408;12.536;2023-03-23T16:01:20;5.05;;;1.48;;
51664;SDS011;37751;52.408;12.536;2023-03-23T16:06:29;2.90;;;1.42;;
51664;SDS011;37751;52.408;12.536;2023-03-23T16:08:59;4.18;;;1.40;;
51664;SDS011;37751;52.408;12.536;2023-03-23T16:11:28;4.30;;;1.48;;
51664;SDS011;37751;52.408;12.536;2023-03-23T16:13:57;5.90;;;1.75;;
51664;SDS011;37751;52.408;12.536;2023-03-23T16:16:27;4.65;;;1.70;;
51664;SDS011;37751;52.408;12.536;2023-03-23T16:19:10;6.22;;;1.60;;
51664;SDS011;37751;52.408;12.536;2023-03-23T16:21:40;6.57;;;2.00;;
51664;SDS011;37751;52.408;12.536;2023-03-23T16:24:09;3.50;;;1.02;;
51664;SDS011;37751;52.408;12.536;2023-03-23T16:26:37;6.90;;;1.30;;
51664;SDS011;37751;52.408;12.536;2023-03-23T16:29:10;3.30;;;1.45;;
51664;SDS011;37751;52.408;12.536;2023-03-23T16:32:00;2.72;;;1.20;;
51664;SDS011;37751;52.408;12.536;2023-03-23T16:37:59;4.88;;;1.00;;
51664;SDS011;37751;52.408;12.536;2023-03-23T16:40:35;3.70;;;1.30;;
51664;SDS011;37751;52.408;12.536;2023-03-23T16:43:04;3.17;;;1.25;;
51664;SDS011;37751;52.408;12.536;2023-03-23T16:45:36;5.63;;;1.45;;
51664;SDS011;37751;52.408;12.536;2023-03-23T16:48:11;8.30;;;1.48;;
51664;SDS011;37751;52.408;12.536;2023-03-23T16:50:42;5.57;;;1.38;;
51664;SDS011;37751;52.408;12.536;2023-03-23T16:53:11;3.28;;;1.45;;
51664;SDS011;37751;52.408;12.536;2023-03-23T16:55:39;7.38;;;2.20;;
51664;SDS011;37751;52.408;12.536;2023-03-23T16:58:07;6.15;;;2.15;;
51664;SDS011;37751;52.408;12.536;2023-03-23T17:00:47;5.75;;;2.13;;
51664;SDS011;37751;52.408;12.536;2023-03-23T17:03:17;7.20;;;2.10;;
51664;SDS011;37751;52.408;12.536;2023-03-23T17:05:47;4.28;;;2.10;;
51664;SDS011;37751;52.408;12.536;2023-03-23T17:08:17;8.05;;;2.38;;
51664;SDS011;37751;52.408;12.536;2023-03-23T17:10:46;2.78;;;1.60;;
51664;SDS011;37751;52.408;12.536;2023-03-23T17:13:14;5.15;;;2.00;;
51664;SDS011;37751;52.408;12.536;2023-03-23T17:15:43;6.65;;;2.58;;
51664;SDS011;37751;52.408;12.536;2023-03-23T17:18:13;8.65;;;3.53;;
51664;SDS011;37751;52.408;12.536;2023-03-23T17:20:45;9.05;;;2.50;;
51664;SDS011;37751;52.408;12.536;2023-03-23T17:23:13;5.40;;;2.05;;